Terminal Aerodrome Forecast
Issued by NWS Brownsville, TX

Home | Current Version | Previous Version | Text Only | Print | Product List | Glossary On
Versions: 1 2 3 4 5 6 7 8 9 10 11 12 13 14 15 16 17
000
FTUS44 KBRO 262300
TAFMFE
TAF
KMFE 262320Z 2700/2724 16007KT P6SM SKC
     FM270400 VRB03KT P6SM SKC
     FM271500 36005KT P6SM SKC
     FM271700 10008KT P6SM SKC=

USA.gov is the U.S. government's official web portal to all federal, state and local government web resources and services.